Time;durP1;ratioP1;P1;durP2;ratioP2;P2;SDS_P1;SDS_P2;PMS_P1;PMS_P2;Temp;Humidity;BMP_temperature;BMP_pressure;BME280_temperature;BME280_humidity;BME280_pressure;Samples;Min_cycle;Max_cycle;Signal;HPM_P1;HPM_P2
2024/03/17 00:01:13;;;;;;;4.50;2.50;;;9.70;59.20;11.60;102141.00;;;;5042661;28;20249;-77
2024/03/17 00:03:39;;;;;;;4.50;2.42;;;9.70;59.20;11.60;102136.00;;;;5073480;28;20599;-78
2024/03/17 00:06:09;;;;;;;5.50;2.88;;;9.70;59.20;11.60;102140.00;;;;5071399;28;20231;-77
2024/03/17 00:08:35;;;;;;;8.00;3.20;;;9.70;59.20;11.60;102132.00;;;;5033419;28;20200;-77
2024/03/17 00:11:03;;;;;;;3.30;2.50;;;9.70;59.10;11.60;102135.00;;;;5033465;28;20204;-77
2024/03/17 00:13:29;;;;;;;4.32;2.70;;;9.70;59.10;11.60;102129.00;;;;5037511;28;20284;-77
2024/03/17 00:15:56;;;;;;;7.13;3.33;;;9.70;59.10;11.60;102122.00;;;;5052794;28;20210;-75
2024/03/17 00:18:22;;;;;;;6.68;3.45;;;9.80;59.20;11.60;102120.00;;;;5065645;28;20202;-77
2024/03/17 00:20:49;;;;;;;7.45;3.22;;;9.80;59.20;11.60;102120.00;;;;5033688;28;20206;-77
2024/03/17 00:23:16;;;;;;;5.47;3.35;;;9.70;59.20;11.60;102112.00;;;;5033949;28;20247;-77
2024/03/17 00:25:43;;;;;;;6.18;3.97;;;9.80;59.30;11.70;102113.00;;;;5052456;28;20646;-77
2024/03/17 00:28:11;;;;;;;6.60;3.67;;;9.80;59.30;11.70;102117.00;;;;5050631;28;20205;-75
2024/03/17 00:30:39;;;;;;;7.63;3.78;;;9.80;59.30;11.70;102114.00;;;;5032637;28;20680;-77
2024/03/17 00:33:05;;;;;;;7.82;4.72;;;9.80;59.30;11.70;102111.00;;;;5061289;28;20195;-77
2024/03/17 00:35:33;;;;;;;5.45;3.45;;;9.80;59.30;11.70;102114.00;;;;5066971;28;20188;-77
2024/03/17 00:38:00;;;;;;;6.05;3.65;;;9.80;59.30;11.70;102109.00;;;;5033676;28;20223;-77
2024/03/17 00:40:28;;;;;;;7.10;3.28;;;9.90;59.40;11.70;102112.00;;;;5049580;28;20207;-77
2024/03/17 00:42:54;;;;;;;6.57;3.60;;;9.80;59.30;11.70;102108.00;;;;5032064;28;20715;-74
2024/03/17 00:45:21;;;;;;;5.57;3.85;;;9.90;59.30;11.80;102100.00;;;;5042261;28;20973;-77
2024/03/17 00:47:49;;;;;;;5.38;3.95;;;9.90;59.90;11.80;102102.00;;;;5045738;28;20205;-77
2024/03/17 00:50:16;;;;;;;6.03;4.55;;;9.90;59.40;11.80;102105.00;;;;5052449;28;20206;-77
2024/03/17 00:52:42;;;;;;;7.45;3.85;;;9.90;59.40;11.80;102101.00;;;;5052508;28;20208;-76
2024/03/17 00:55:10;;;;;;;7.05;4.57;;;9.90;59.40;11.80;102105.00;;;;5052372;28;20195;-76
2024/03/17 00:57:38;;;;;;;7.43;4.05;;;9.90;59.30;11.80;102108.00;;;;5047521;28;20211;-77
2024/03/17 01:00:10;;;;;;;8.07;3.88;;;9.90;59.30;11.80;102104.00;;;;5052134;28;20195;-77
2024/03/17 01:02:36;;;;;;;8.68;4.00;;;9.90;59.30;11.70;102096.00;;;;5049617;28;20692;-78
2024/03/17 01:05:05;;;;;;;6.82;4.15;;;9.90;59.30;11.80;102097.00;;;;5051386;28;20199;-77
2024/03/17 01:07:32;;;;;;;6.30;4.03;;;9.90;59.30;11.80;102095.00;;;;5050733;28;20724;-76
2024/03/17 01:09:58;;;;;;;5.20;3.80;;;9.90;59.30;11.80;102092.00;;;;5032682;28;20200;-77
2024/03/17 01:12:26;;;;;;;7.05;4.18;;;9.90;59.30;11.80;102096.00;;;;5031979;28;20250;-77
2024/03/17 01:14:54;;;;;;;5.05;4.03;;;9.90;59.40;11.80;102088.00;;;;5038256;28;20219;-77
2024/03/17 01:17:21;;;;;;;7.40;4.47;;;10.00;59.40;11.80;102091.00;;;;5042031;28;20201;-77
2024/03/17 01:19:47;;;;;;;6.00;4.20;;;9.90;59.40;11.80;102093.00;;;;5040928;28;20211;-77
2024/03/17 01:22:14;;;;;;;7.43;4.30;;;10.00;59.50;11.80;102096.00;;;;5031432;28;20231;-76
2024/03/17 01:24:45;;;;;;;6.43;4.25;;;10.00;59.50;11.80;102087.00;;;;5033987;28;20202;-77
2024/03/17 01:27:15;;;;;;;6.38;4.10;;;10.00;59.50;11.80;102081.00;;;;5034647;28;20684;-77
2024/03/17 01:29:42;;;;;;;7.45;4.82;;;10.00;59.50;11.80;102072.00;;;;5038182;28;20678;-77
2024/03/17 01:32:11;;;;;;;7.32;3.88;;;10.00;59.60;11.80;102071.00;;;;5040411;28;20199;-77
2024/03/17 01:34:38;;;;;;;6.30;4.10;;;10.00;59.60;11.90;102073.00;;;;5058501;28;20687;-77
2024/03/17 01:37:05;;;;;;;5.55;4.32;;;10.00;59.60;11.90;102066.00;;;;5031387;28;20963;-77
2024/03/17 01:39:32;;;;;;;9.07;4.78;;;10.00;59.60;11.90;102059.00;;;;5031765;28;20204;-77
2024/03/17 01:41:59;;;;;;;5.10;4.18;;;10.00;59.60;11.90;102053.00;;;;5031754;28;20288;-77
2024/03/17 01:44:28;;;;;;;7.60;4.13;;;10.00;59.60;11.90;102059.00;;;;5033035;28;20677;-77
2024/03/17 01:46:56;;;;;;;10.00;5.05;;;10.00;59.60;11.90;102056.00;;;;5036275;28;20297;-74
2024/03/17 01:49:26;;;;;;;4.65;4.07;;;10.00;59.60;11.80;102056.00;;;;5037670;28;20210;-77
2024/03/17 01:51:55;;;;;;;8.43;4.75;;;10.00;59.60;11.80;102056.00;;;;5032069;28;20246;-77
2024/03/17 01:54:21;;;;;;;6.82;4.03;;;10.00;59.60;11.80;102056.00;;;;5031817;28;20653;-77
2024/03/17 01:56:49;;;;;;;8.57;4.93;;;10.00;59.60;11.80;102048.00;;;;5031839;28;20277;-77
2024/03/17 01:59:15;;;;;;;6.35;4.40;;;10.00;59.60;11.80;102052.00;;;;5041806;28;20203;-77
2024/03/17 02:01:42;;;;;;;9.05;4.70;;;10.00;59.60;11.80;102042.00;;;;5051406;28;20278;-77
2024/03/17 02:04:08;;;;;;;6.13;4.57;;;10.00;59.60;11.80;102031.00;;;;5051553;28;20199;-77
2024/03/17 02:06:36;;;;;;;6.25;4.57;;;10.00;59.60;11.80;102037.00;;;;5048196;28;20310;-77
2024/03/17 02:09:03;;;;;;;5.30;4.07;;;10.00;59.70;11.80;102049.00;;;;5052058;28;20199;-77
2024/03/17 02:11:32;;;;;;;6.95;4.55;;;10.00;59.70;11.80;102034.00;;;;5040216;28;20192;-77
2024/03/17 02:13:59;;;;;;;7.63;4.30;;;9.90;59.70;11.80;102044.00;;;;5048384;28;20199;-77
2024/03/17 02:16:27;;;;;;;7.18;5.00;;;9.90;59.70;11.80;102038.00;;;;5046410;28;20659;-77
2024/03/17 02:18:55;;;;;;;8.23;5.10;;;10.00;59.90;11.80;102034.00;;;;5037290;28;20191;-78
2024/03/17 02:21:23;;;;;;;7.72;5.07;;;10.00;60.00;11.80;102033.00;;;;5051517;28;20195;-77
2024/03/17 02:23:51;;;;;;;7.93;4.78;;;10.00;60.00;11.90;102034.00;;;;5059036;28;20222;-77
2024/03/17 02:26:18;;;;;;;7.38;4.30;;;10.00;60.10;11.90;102022.00;;;;5052738;28;20236;-77
2024/03/17 02:28:47;;;;;;;7.30;5.10;;;10.00;60.10;11.90;102011.00;;;;5033252;28;20215;-77
2024/03/17 02:31:16;;;;;;;8.10;5.38;;;10.00;60.10;11.90;102022.00;;;;5051348;28;20203;-77
2024/03/17 02:33:43;;;;;;;7.25;4.78;;;10.00;60.10;12.00;102019.00;;;;5050819;28;20572;-77
2024/03/17 02:36:11;;;;;;;9.00;4.85;;;10.10;60.20;12.00;102021.00;;;;5053027;28;20208;-77
2024/03/17 02:41:26;;;;;;;5.35;4.25;;;10.10;60.30;12.10;102019.00;;;;5053207;28;20202;-77
2024/03/17 02:43:53;;;;;;;6.65;4.70;;;10.20;60.40;12.10;102021.00;;;;5053638;28;20227;-77
2024/03/17 02:46:22;;;;;;;5.85;4.38;;;10.20;60.40;12.10;102017.00;;;;5045414;28;20803;-76
2024/03/17 02:48:52;;;;;;;7.00;4.72;;;10.20;60.40;12.10;102017.00;;;;5045235;28;20214;-77
2024/03/17 02:51:22;;;;;;;8.48;5.50;;;10.30;60.50;12.20;102022.00;;;;5034961;28;20208;-77
2024/03/17 02:53:51;;;;;;;6.25;4.43;;;10.30;60.50;12.20;102021.00;;;;5059461;28;20191;-77
2024/03/17 02:56:19;;;;;;;7.03;4.78;;;10.30;60.40;12.30;102013.00;;;;5071984;28;20191;-77
2024/03/17 02:58:51;;;;;;;7.75;4.85;;;10.40;60.40;12.20;102017.00;;;;5034379;28;20283;-77
2024/03/17 03:01:19;;;;;;;8.73;5.18;;;10.40;61.00;12.30;102012.00;;;;5049077;28;20204;-77
2024/03/17 03:03:46;;;;;;;6.00;4.75;;;10.50;60.40;12.40;102014.00;;;;5045718;28;20243;-76
2024/03/17 03:06:14;;;;;;;5.80;4.93;;;10.50;60.40;12.40;102012.00;;;;5036545;28;20227;-76
2024/03/17 03:08:43;;;;;;;8.23;4.63;;;10.50;60.30;12.40;102006.00;;;;5043923;28;20210;-77
2024/03/17 03:11:12;;;;;;;7.07;5.43;;;10.50;60.30;12.40;102010.00;;;;5034831;28;20696;-77
2024/03/17 03:13:40;;;;;;;6.38;4.72;;;10.60;60.30;12.50;102006.00;;;;5038360;28;20199;-77
2024/03/17 03:16:11;;;;;;;6.30;5.40;;;10.60;60.20;12.50;102017.00;;;;5054372;28;20708;-76
2024/03/17 03:18:39;;;;;;;5.70;4.50;;;10.70;60.20;12.50;102013.00;;;;5038245;28;20279;-76
2024/03/17 03:21:08;;;;;;;8.18;5.40;;;10.70;60.20;12.60;102012.00;;;;5034220;28;20199;-77
2024/03/17 03:23:36;;;;;;;7.50;5.00;;;10.70;60.20;12.60;102026.00;;;;5042238;28;20241;-76
2024/03/17 03:26:04;;;;;;;6.22;4.60;;;10.80;60.20;12.60;102020.00;;;;5070443;28;20560;-76
2024/03/17 03:28:33;;;;;;;5.90;4.68;;;10.80;60.20;12.60;102023.00;;;;5033712;28;20661;-77
2024/03/17 03:31:00;;;;;;;6.63;4.90;;;10.80;60.10;12.70;102010.00;;;;5051264;28;20199;-77
2024/03/17 03:33:30;;;;;;;7.32;5.13;;;10.80;60.00;12.70;102011.00;;;;5052703;28;20204;-76
2024/03/17 03:35:57;;;;;;;5.78;4.80;;;10.90;60.10;12.70;101999.00;;;;5036270;28;20196;-77
2024/03/17 03:38:25;;;;;;;7.43;5.07;;;10.90;60.10;12.70;101991.00;;;;5038420;28;20283;-76
2024/03/17 03:40:53;;;;;;;8.50;5.10;;;10.90;60.00;12.80;101993.00;;;;5038632;28;20231;-76
2024/03/17 03:43:20;;;;;;;6.10;5.00;;;10.90;60.00;12.80;101993.00;;;;5034045;28;20286;-77
2024/03/17 03:45:47;;;;;;;9.05;5.57;;;10.90;60.00;12.80;101996.00;;;;5033943;28;20669;-77
2024/03/17 03:48:14;;;;;;;7.18;5.05;;;11.00;60.00;12.80;101990.00;;;;5045613;28;20663;-76
2024/03/17 03:50:43;;;;;;;6.28;5.00;;;11.00;60.00;12.80;101994.00;;;;5032571;28;20200;-76
2024/03/17 03:53:11;;;;;;;6.90;5.15;;;11.00;60.00;12.90;101988.00;;;;5037797;28;20249;-77
2024/03/17 03:55:38;;;;;;;7.10;5.15;;;11.00;59.90;12.90;101980.00;;;;5051911;28;20197;-76
2024/03/17 03:58:05;;;;;;;7.05;4.93;;;11.00;60.00;12.90;101968.00;;;;5051369;28;20664;-77
2024/03/17 04:00:32;;;;;;;7.88;5.80;;;11.10;60.00;12.90;101962.00;;;;5045894;28;20560;-76
2024/03/17 04:03:01;;;;;;;9.05;5.38;;;11.10;59.90;12.90;101951.00;;;;5032876;28;20303;-77
2024/03/17 04:05:29;;;;;;;7.47;6.00;;;11.10;59.90;12.90;101952.00;;;;5036616;28;20310;-75
2024/03/17 04:07:58;;;;;;;10.15;6.40;;;11.10;59.90;12.90;101952.00;;;;5039101;28;20200;-77
2024/03/17 04:10:25;;;;;;;9.07;6.25;;;11.10;59.90;12.90;101944.00;;;;5043839;28;20204;-77
2024/03/17 04:12:53;;;;;;;7.82;5.63;;;11.10;59.90;13.00;101942.00;;;;5043262;28;20738;-77
2024/03/17 04:15:20;;;;;;;10.15;5.43;;;11.10;59.90;13.00;101943.00;;;;5035986;28;20225;-77
2024/03/17 04:17:48;;;;;;;7.50;5.22;;;11.10;59.90;12.90;101945.00;;;;5031521;28;20207;-77
2024/03/17 04:20:16;;;;;;;7.05;5.78;;;11.10;59.90;13.00;101942.00;;;;5043787;28;20191;-78
2024/03/17 04:22:43;;;;;;;8.38;5.53;;;11.10;59.90;13.00;101941.00;;;;5041655;28;20318;-78
2024/03/17 04:25:14;;;;;;;8.70;5.80;;;11.10;59.90;13.00;101935.00;;;;5043704;28;20198;-77
2024/03/17 04:27:41;;;;;;;6.78;5.57;;;11.20;60.00;13.00;101942.00;;;;5035243;28;20196;-76
2024/03/17 04:30:11;;;;;;;7.70;5.28;;;11.20;60.00;13.00;101943.00;;;;5034318;28;20193;-77
2024/03/17 04:32:39;;;;;;;7.72;5.35;;;11.20;60.00;13.00;101935.00;;;;5032501;28;20196;-75
2024/03/17 04:35:06;;;;;;;8.88;5.20;;;11.20;60.00;13.00;101936.00;;;;5033204;28;20722;-77
2024/03/17 04:37:38;;;;;;;7.68;5.68;;;11.20;60.00;13.10;101934.00;;;;5032840;28;20199;-74
2024/03/17 04:40:10;;;;;;;7.47;5.60;;;11.20;60.00;13.00;101921.00;;;;5038470;28;20200;-76
2024/03/17 04:42:39;;;;;;;6.72;4.93;;;11.20;60.00;13.00;101925.00;;;;5041179;28;20222;-77
2024/03/17 04:45:10;;;;;;;7.10;5.40;;;11.20;59.90;13.00;101923.00;;;;5052484;28;20200;-77
2024/03/17 04:47:38;;;;;;;7.57;5.45;;;11.20;60.00;13.00;101922.00;;;;5052414;28;20200;-75
2024/03/17 04:50:06;;;;;;;5.55;4.97;;;11.20;59.90;13.10;101926.00;;;;5032385;28;20192;-76
2024/03/17 04:52:33;;;;;;;6.78;5.38;;;11.20;60.00;13.10;101930.00;;;;5032689;28;20234;-76
2024/03/17 04:55:00;;;;;;;9.73;5.45;;;11.20;60.00;13.10;101931.00;;;;5032750;28;20192;-76
2024/03/17 04:57:27;;;;;;;7.50;5.45;;;11.20;60.00;13.10;101935.00;;;;5032954;28;20196;-76
2024/03/17 04:59:56;;;;;;;7.07;5.10;;;11.30;60.00;13.10;101940.00;;;;5031698;28;20635;-76
2024/03/17 05:02:23;;;;;;;6.78;4.90;;;11.30;60.00;13.10;101937.00;;;;5045458;28;20660;-74
2024/03/17 05:04:51;;;;;;;6.22;5.25;;;11.30;60.00;13.10;101929.00;;;;5052160;28;20673;-76
2024/03/17 05:07:19;;;;;;;7.40;5.00;;;11.30;60.00;13.10;101929.00;;;;5051167;28;20231;-78
2024/03/17 05:09:46;;;;;;;8.00;5.53;;;11.30;60.00;13.10;101928.00;;;;5034363;28;20203;-77
2024/03/17 05:12:13;;;;;;;5.80;4.95;;;11.30;60.00;13.10;101933.00;;;;5032329;28;20662;-76
2024/03/17 05:14:40;;;;;;;7.53;5.45;;;11.30;60.00;13.10;101926.00;;;;5034886;28;20212;-76
2024/03/17 05:17:08;;;;;;;6.78;5.53;;;11.30;60.00;13.10;101928.00;;;;5045018;28;20214;-77
2024/03/17 05:19:36;;;;;;;7.05;5.55;;;11.30;59.90;13.10;101928.00;;;;5042123;28;20574;-76
2024/03/17 05:22:03;;;;;;;6.68;5.10;;;11.30;59.90;13.10;101931.00;;;;5032156;28;20202;-76
2024/03/17 05:24:30;;;;;;;7.32;5.20;;;11.30;59.80;13.20;101932.00;;;;5032085;28;20592;-76
2024/03/17 05:26:57;;;;;;;6.88;5.28;;;11.30;59.80;13.10;101937.00;;;;5037206;28;20286;-76
2024/03/17 05:29:24;;;;;;;5.40;4.78;;;11.30;59.80;13.10;101935.00;;;;5040844;28;20196;-77
2024/03/17 05:31:51;;;;;;;7.45;5.28;;;11.30;59.80;13.10;101930.00;;;;5038052;28;20578;-76
2024/03/17 05:34:20;;;;;;;7.15;5.15;;;11.30;59.80;13.10;101927.00;;;;5039166;28;20200;-77
2024/03/17 05:36:47;;;;;;;7.35;5.30;;;11.30;59.80;13.10;101913.00;;;;5034434;28;20564;-77
2024/03/17 05:39:14;;;;;;;7.05;5.88;;;11.30;59.80;13.10;101905.00;;;;5032930;28;20188;-76
2024/03/17 05:41:43;;;;;;;6.28;4.72;;;11.30;59.80;13.10;101909.00;;;;5030340;28;20196;-77
2024/03/17 05:44:10;;;;;;;6.72;5.53;;;11.30;59.80;13.10;101908.00;;;;5046580;28;20234;-76
2024/03/17 05:46:37;;;;;;;7.63;5.85;;;11.30;59.80;13.10;101907.00;;;;5040179;28;20201;-77
2024/03/17 05:49:05;;;;;;;5.75;4.97;;;11.30;59.80;13.00;101915.00;;;;5031757;28;20196;-77
2024/03/17 05:51:33;;;;;;;6.47;5.30;;;11.20;59.70;13.00;101913.00;;;;5031788;28;20193;-77
2024/03/17 05:54:00;;;;;;;7.28;5.38;;;11.20;59.70;13.00;101919.00;;;;5031681;28;20571;-77
2024/03/17 05:56:27;;;;;;;6.80;5.32;;;11.20;59.70;13.00;101922.00;;;;5033084;28;20206;-77
2024/03/17 05:58:54;;;;;;;7.40;5.53;;;11.20;59.70;13.00;101922.00;;;;5037396;28;20210;-77
2024/03/17 06:01:23;;;;;;;7.43;5.55;;;11.20;59.70;13.00;101924.00;;;;5040598;28;20191;-76
2024/03/17 06:03:50;;;;;;;5.72;4.90;;;11.20;59.70;12.90;101928.00;;;;5043354;28;20711;-76
2024/03/17 06:06:17;;;;;;;5.55;5.00;;;11.20;59.70;12.90;101928.00;;;;5031008;28;20220;-77
2024/03/17 06:08:45;;;;;;;8.57;5.47;;;11.10;59.70;12.90;101924.00;;;;5032168;28;20295;-77
2024/03/17 06:11:13;;;;;;;7.68;5.05;;;11.10;59.80;12.90;101928.00;;;;5047242;28;20653;-76
2024/03/17 06:13:40;;;;;;;6.93;5.78;;;11.10;59.80;12.90;101923.00;;;;5035315;28;20226;-77
2024/03/17 06:16:07;;;;;;;7.28;5.75;;;11.10;59.90;12.90;101919.00;;;;5036504;28;20237;-77
2024/03/17 06:18:34;;;;;;;8.25;6.00;;;11.20;60.00;13.00;101927.00;;;;5074408;28;20656;-77
2024/03/17 06:21:01;;;;;;;7.32;6.18;;;11.20;60.10;13.00;101923.00;;;;5061583;28;20261;-78
2024/03/17 06:23:28;;;;;;;6.63;5.28;;;11.20;60.10;13.00;101926.00;;;;5035719;28;20719;-76
2024/03/17 06:25:57;;;;;;;7.47;5.97;;;11.20;60.20;13.00;101915.00;;;;5036075;28;20295;-78
2024/03/17 06:28:26;;;;;;;6.53;5.75;;;11.20;60.80;13.10;101924.00;;;;5035681;28;20208;-77
2024/03/17 06:30:59;;;;;;;6.05;5.20;;;11.20;60.20;13.00;101921.00;;;;5035566;28;20705;-77
2024/03/17 06:33:28;;;;;;;8.38;6.45;;;11.30;60.20;13.10;101923.00;;;;5053210;28;20215;-77
2024/03/17 06:35:56;;;;;;;7.95;5.90;;;11.30;60.20;13.20;101909.00;;;;5038525;28;20200;-78
2024/03/17 06:38:24;;;;;;;8.85;5.35;;;11.30;60.30;13.20;101903.00;;;;5035366;28;20195;-77
2024/03/17 06:40:52;;;;;;;8.98;5.72;;;11.30;60.30;13.30;101914.00;;;;5035544;28;20222;-77
2024/03/17 06:43:22;;;;;;;8.70;6.00;;;11.40;60.40;13.30;101909.00;;;;5051991;28;20223;-76
2024/03/17 06:45:57;;;;;;;8.98;5.70;;;11.40;60.40;13.30;101915.00;;;;5045813;28;20332;-77
2024/03/17 06:48:24;;;;;;;6.57;5.43;;;11.50;60.50;13.40;101925.00;;;;5041712;28;20206;-77
2024/03/17 06:50:52;;;;;;;10.25;6.18;;;11.50;60.40;13.40;101932.00;;;;5035167;28;20283;-77
2024/03/17 06:53:19;;;;;;;9.93;6.18;;;11.60;60.50;13.50;101923.00;;;;5044679;28;20283;-77
2024/03/17 06:55:55;;;;;;;7.45;5.68;;;11.60;60.50;13.50;101919.00;;;;5039679;28;20204;-77
2024/03/17 06:58:29;;;;;;;6.95;6.25;;;11.70;60.50;13.50;101917.00;;;;5037506;28;20190;-77
2024/03/17 07:00:57;;;;;;;8.82;5.95;;;11.70;60.40;13.60;101922.00;;;;5046706;28;20580;-78
2024/03/17 07:03:26;;;;;;;8.40;6.50;;;11.80;60.40;13.70;101920.00;;;;5050939;28;20219;-77
2024/03/17 07:05:55;;;;;;;10.02;6.55;;;11.80;60.40;13.70;101925.00;;;;5051178;28;20219;-78
2024/03/17 07:08:23;;;;;;;6.22;5.40;;;11.80;60.30;13.70;101923.00;;;;5038355;28;20196;-77
2024/03/17 07:10:59;;;;;;;6.68;5.93;;;11.90;60.30;13.70;101932.00;;;;5053448;28;20188;-77
2024/03/17 07:13:30;;;;;;;7.65;6.20;;;11.90;60.20;13.80;101934.00;;;;5041403;28;20195;-79
2024/03/17 07:15:57;;;;;;;8.25;5.93;;;12.00;60.10;13.80;101928.00;;;;5040943;28;20209;-77
2024/03/17 07:18:27;;;;;;;8.27;7.03;;;12.00;60.10;13.90;101936.00;;;;5041626;28;20196;-78
2024/03/17 07:20:58;;;;;;;7.78;6.10;;;12.10;60.20;13.90;101933.00;;;;5035437;28;20200;-78
2024/03/17 07:23:25;;;;;;;7.60;6.25;;;12.10;60.20;14.00;101927.00;;;;5040813;28;20707;-77
2024/03/17 07:25:56;;;;;;;7.85;5.93;;;12.10;60.20;14.00;101925.00;;;;5039832;28;20199;-78
2024/03/17 07:28:24;;;;;;;8.68;6.20;;;12.20;60.20;14.00;101932.00;;;;5037609;28;20203;-77
2024/03/17 07:30:56;;;;;;;8.10;5.55;;;12.20;60.20;14.10;101921.00;;;;5043010;28;20677;-78
2024/03/17 07:33:24;;;;;;;10.18;6.30;;;12.30;60.20;14.20;101916.00;;;;5045086;28;20203;-79
2024/03/17 07:35:53;;;;;;;7.00;6.07;;;12.30;60.20;14.20;101918.00;;;;5042126;28;20199;-77
2024/03/17 07:38:20;;;;;;;8.57;6.80;;;12.40;60.20;14.30;101915.00;;;;5037855;28;20211;-76
2024/03/17 07:40:59;;;;;;;7.95;6.70;;;12.40;60.20;14.30;101920.00;;;;5040038;28;20207;-77
2024/03/17 07:43:26;;;;;;;6.95;6.10;;;12.50;60.30;14.40;101923.00;;;;5034622;28;20671;-82
2024/03/17 07:46:06;;;;;;;7.93;6.20;;;12.50;60.10;14.40;101928.00;;;;5033460;28;20239;-82
2024/03/17 07:48:35;;;;;;;7.07;5.50;;;12.60;60.20;14.60;101922.00;;;;5036617;28;20687;-82
2024/03/17 07:51:04;;;;;;;6.97;6.28;;;12.70;60.20;14.60;101924.00;;;;5031850;28;20202;-82
2024/03/17 07:53:32;;;;;;;7.50;5.82;;;12.70;60.30;14.70;101911.00;;;;5044911;28;20725;-83
2024/03/17 07:56:01;;;;;;;7.03;6.25;;;12.80;60.30;14.80;101913.00;;;;5034587;28;20669;-80
2024/03/17 07:58:28;;;;;;;7.05;5.95;;;12.90;60.40;14.90;101916.00;;;;5033605;28;20688;-82
2024/03/17 08:01:00;;;;;;;7.05;6.05;;;12.90;60.40;14.90;101916.00;;;;5038155;28;20192;-83
2024/03/17 08:03:31;;;;;;;8.07;6.55;;;13.00;60.20;15.00;101915.00;;;;5040037;28;20246;-82
2024/03/17 08:05:59;;;;;;;6.88;6.15;;;13.10;60.10;15.10;101916.00;;;;5044616;28;20309;-84
2024/03/17 08:08:25;;;;;;;6.72;5.50;;;13.20;60.10;15.20;101923.00;;;;5040007;28;20198;-82
2024/03/17 08:10:52;;;;;;;9.10;6.13;;;13.30;60.00;15.20;101922.00;;;;5032982;28;20200;-82
2024/03/17 08:13:20;;;;;;;5.80;5.20;;;13.30;59.80;15.30;101921.00;;;;5049174;28;20203;-79
2024/03/17 08:15:57;;;;;;;6.32;5.70;;;13.40;59.80;15.20;101917.00;;;;5042888;28;20212;-79
2024/03/17 08:18:24;;;;;;;6.50;5.55;;;13.50;59.70;15.40;101922.00;;;;5042785;28;20207;-78
2024/03/17 08:20:54;;;;;;;7.32;5.90;;;13.50;59.50;15.40;101913.00;;;;5049282;28;20254;-78
2024/03/17 08:23:21;;;;;;;6.40;5.28;;;13.60;59.50;15.40;101905.00;;;;5052120;28;20545;-79
2024/03/17 08:25:54;;;;;;;6.32;5.43;;;13.60;59.40;15.40;101912.00;;;;5049194;28;20295;-79
2024/03/17 08:28:22;;;;;;;6.18;5.47;;;13.60;59.40;15.50;101913.00;;;;5041897;28;20224;-78
2024/03/17 08:30:54;;;;;;;7.13;4.97;;;13.70;59.30;15.50;101908.00;;;;5040035;28;20210;-78
2024/03/17 08:33:22;;;;;;;5.85;4.97;;;13.70;59.30;15.50;101917.00;;;;5038806;28;20634;-78
2024/03/17 08:35:59;;;;;;;7.78;5.13;;;13.70;59.20;15.50;101924.00;;;;5034510;28;20235;-78
2024/03/17 08:38:27;;;;;;;6.88;5.47;;;13.80;59.20;15.60;101916.00;;;;5033013;28;20200;-79
2024/03/17 08:40:55;;;;;;;7.95;5.65;;;13.80;59.30;15.70;101916.00;;;;5037767;28;20208;-79
2024/03/17 08:43:24;;;;;;;7.57;5.20;;;13.80;59.20;15.70;101908.00;;;;5033317;28;20725;-78
2024/03/17 08:45:59;;;;;;;6.68;5.55;;;13.90;59.10;15.70;101913.00;;;;5040027;28;20234;-78
2024/03/17 08:48:28;;;;;;;6.45;5.00;;;13.90;59.60;15.80;101912.00;;;;5040880;28;20203;-78
2024/03/17 08:50:57;;;;;;;7.25;5.80;;;14.00;59.10;15.80;101909.00;;;;5037120;28;20278;-78
2024/03/17 08:53:26;;;;;;;9.30;5.85;;;14.00;59.00;15.90;101916.00;;;;5043382;28;20207;-76
2024/03/17 08:55:53;;;;;;;7.00;5.80;;;14.10;58.90;15.90;101907.00;;;;5041923;28;20224;-77
2024/03/17 08:58:20;;;;;;;8.50;5.97;;;14.10;59.00;16.00;101907.00;;;;5037441;28;20196;-79
2024/03/17 09:00:48;;;;;;;6.75;6.05;;;14.10;58.90;16.00;101906.00;;;;5031826;28;20578;-77
2024/03/17 09:03:19;;;;;;;7.10;5.40;;;14.10;58.90;16.00;101898.00;;;;5038769;28;20196;-78
2024/03/17 09:05:49;;;;;;;7.28;5.53;;;14.20;58.90;16.10;101895.00;;;;5034983;28;20632;-77
2024/03/17 09:08:21;;;;;;;7.55;5.65;;;14.20;58.80;16.10;101894.00;;;;5044520;28;20188;-77
2024/03/17 09:10:53;;;;;;;7.85;5.70;;;14.30;58.90;16.20;101904.00;;;;5034766;28;20286;-78
2024/03/17 09:13:23;;;;;;;7.85;6.25;;;14.30;58.90;16.30;101890.00;;;;5035229;28;20188;-78
2024/03/17 09:15:59;;;;;;;6.22;5.63;;;14.40;59.00;16.40;101897.00;;;;5046015;28;20285;-77
2024/03/17 09:18:28;;;;;;;7.43;5.28;;;14.50;59.10;16.50;101902.00;;;;5033282;28;20211;-78
2024/03/17 09:21:00;;;;;;;7.78;5.28;;;14.60;59.10;16.60;101899.00;;;;5032561;28;20258;-78
2024/03/17 09:23:30;;;;;;;6.38;5.70;;;14.70;59.10;16.70;101896.00;;;;5036691;28;20266;-78
2024/03/17 09:25:59;;;;;;;5.93;5.15;;;14.70;59.00;16.80;101899.00;;;;5042005;28;20220;-78
2024/03/17 09:28:26;;;;;;;6.85;5.65;;;14.80;59.00;16.80;101898.00;;;;5039498;28;20195;-78
2024/03/17 09:30:53;;;;;;;6.32;5.25;;;14.90;59.00;16.90;101899.00;;;;5034553;28;20196;-78
2024/03/17 09:33:21;;;;;;;7.93;6.03;;;15.00;59.10;17.00;101898.00;;;;5031803;28;20211;-79
2024/03/17 09:35:55;;;;;;;6.28;5.68;;;15.10;59.00;17.10;101905.00;;;;5032901;28;20286;-77
2024/03/17 09:38:22;;;;;;;6.22;5.25;;;15.20;58.80;17.20;101900.00;;;;5038343;28;20664;-76
2024/03/17 09:40:52;;;;;;;7.35;5.47;;;15.30;58.70;17.20;101902.00;;;;5039247;28;20204;-77
2024/03/17 09:43:21;;;;;;;7.55;6.00;;;15.30;58.40;17.20;101894.00;;;;5044292;28;20189;-81
2024/03/17 09:45:49;;;;;;;7.57;5.75;;;15.40;58.30;17.30;101894.00;;;;5042805;28;20708;-81
2024/03/17 09:48:19;;;;;;;5.70;5.10;;;15.40;58.30;17.40;101892.00;;;;5046345;28;20261;-81
2024/03/17 09:50:53;;;;;;;6.10;5.38;;;15.50;58.40;17.40;101894.00;;;;5035735;28;20545;-82
2024/03/17 09:53:25;;;;;;;7.47;5.72;;;15.60;58.30;17.50;101893.00;;;;5031833;28;20226;-83
2024/03/17 09:55:59;;;;;;;5.90;5.22;;;15.60;58.20;17.60;101882.00;;;;5032436;28;20208;-83
2024/03/17 09:58:26;;;;;;;7.45;5.60;;;15.70;58.10;17.70;101881.00;;;;5043955;28;20274;-82
2024/03/17 10:00:54;;;;;;;5.63;4.88;;;15.80;58.10;17.80;101865.00;;;;5039507;28;20279;-80
2024/03/17 10:03:41;;;;;;;6.43;5.03;;;15.90;58.10;17.80;101879.00;;;;5043075;28;20700;-79
2024/03/17 10:06:10;;;;;;;7.95;5.13;;;15.90;57.90;17.90;101884.00;;;;5034357;28;20246;-79
2024/03/17 10:08:46;;;;;;;8.18;5.53;;;16.00;58.00;17.90;101877.00;;;;5047285;28;20746;-78
2024/03/17 10:11:15;;;;;;;8.70;4.93;;;16.10;57.80;18.00;101888.00;;;;5035541;28;20322;-78
2024/03/17 10:13:44;;;;;;;6.65;5.65;;;16.10;57.50;18.00;101891.00;;;;5043929;28;20196;-79
2024/03/17 10:16:26;;;;;;;6.85;5.05;;;16.20;57.50;17.90;101884.00;;;;5034805;28;20415;-80
2024/03/17 10:19:10;;;;;;;5.47;4.97;;;16.20;57.20;18.00;101877.00;;;;5037430;28;20196;-78
2024/03/17 10:21:38;;;;;;;6.03;4.95;;;16.30;57.10;18.10;101876.00;;;;5053356;28;20199;-78
2024/03/17 10:24:10;;;;;;;6.30;5.43;;;16.30;57.30;18.10;101872.00;;;;5038822;28;20745;-77
2024/03/17 10:26:43;;;;;;;8.13;5.50;;;16.30;57.60;18.10;101878.00;;;;5035545;28;20188;-80
2024/03/17 10:29:35;;;;;;;5.53;4.82;;;16.30;57.20;18.10;101865.00;;;;5034502;28;20192;-78
2024/03/17 10:32:14;;;;;;;6.97;4.95;;;16.40;57.00;18.30;101876.00;;;;5050073;28;20206;-79
2024/03/17 10:34:41;;;;;;;7.15;5.03;;;16.50;57.40;18.40;101873.00;;;;5037333;28;20772;-81
2024/03/17 10:37:12;;;;;;;8.50;4.75;;;16.60;57.50;18.50;101865.00;;;;5040828;28;20677;-81
2024/03/17 10:39:40;;;;;;;6.82;4.75;;;16.60;57.50;18.60;101873.00;;;;5036377;28;20216;-80
2024/03/17 10:42:11;;;;;;;6.47;4.88;;;16.70;57.40;18.60;101869.00;;;;5032224;28;20801;-80
2024/03/17 10:44:41;;;;;;;8.00;5.57;;;16.80;57.20;18.70;101864.00;;;;5035585;28;20228;-78
2024/03/17 10:47:18;;;;;;;6.00;4.88;;;16.90;57.30;18.80;101850.00;;;;5036868;28;20287;-80
2024/03/17 10:49:54;;;;;;;6.25;5.53;;;17.00;57.00;18.80;101854.00;;;;5044917;28;20290;-80
2024/03/17 10:52:22;;;;;;;5.88;4.95;;;17.00;57.00;19.00;101854.00;;;;5033010;28;20207;-78
2024/03/17 10:54:53;;;;;;;5.50;4.88;;;17.10;57.00;19.00;101846.00;;;;5030557;28;20255;-80
2024/03/17 10:57:45;;;;;;;7.18;5.32;;;17.20;57.00;19.10;101861.00;;;;5039228;28;20208;-78